createdAt,value
2018-07-07T00:00:39.636Z,0
2018-07-07T00:01:39.608Z,0
2018-07-07T00:02:39.606Z,0
2018-07-07T00:03:39.612Z,0
2018-07-07T00:04:39.338Z,0
2018-07-07T00:05:39.588Z,0
2018-07-07T00:06:39.576Z,0
2018-07-07T00:07:39.322Z,0
2018-07-07T00:08:39.568Z,0
2018-07-07T00:09:39.561Z,0
2018-07-07T00:10:39.322Z,0
2018-07-07T00:11:39.548Z,0
2018-07-07T00:12:39.542Z,0
2018-07-07T00:13:39.542Z,0
2018-07-07T00:14:39.532Z,0
2018-07-07T00:15:39.538Z,0
2018-07-07T00:16:39.550Z,0
2018-07-07T00:17:39.267Z,0
2018-07-07T00:18:39.539Z,0
2018-07-07T00:19:39.523Z,0
2018-07-07T00:20:39.508Z,0
2018-07-07T00:21:39.494Z,0
2018-07-07T00:22:39.494Z,0
2018-07-07T00:23:39.500Z,0
2018-07-07T00:24:39.475Z,0
2018-07-07T00:25:39.484Z,0
2018-07-07T00:26:39.469Z,0
2018-07-07T00:27:39.463Z,0
2018-07-07T00:28:39.461Z,0
2018-07-07T00:29:39.461Z,0
2018-07-07T00:30:39.189Z,0
2018-07-07T00:31:39.455Z,0
2018-07-07T00:32:39.434Z,0
2018-07-07T00:33:39.430Z,0
2018-07-07T00:34:39.418Z,0
2018-07-07T00:35:39.424Z,0
2018-07-07T00:36:39.424Z,0
2018-07-07T00:37:39.404Z,0
2018-07-07T00:38:39.403Z,0
2018-07-07T00:39:39.389Z,0
2018-07-07T00:40:39.385Z,0
2018-07-07T00:41:39.402Z,0
2018-07-07T00:42:39.381Z,0
2018-07-07T00:43:39.372Z,0
2018-07-07T00:44:39.361Z,0
2018-07-07T00:45:39.115Z,0
2018-07-07T00:46:39.353Z,0
2018-07-07T00:47:39.353Z,0
2018-07-07T00:48:39.338Z,0
2018-07-07T00:49:39.333Z,0
2018-07-07T00:50:39.345Z,0
2018-07-07T00:51:39.318Z,0
2018-07-07T00:52:39.310Z,0
2018-07-07T00:53:39.063Z,0
2018-07-07T00:54:39.198Z,0
2018-07-07T00:55:39.293Z,0
2018-07-07T00:56:39.298Z,0
2018-07-07T00:57:39.281Z,0
2018-07-07T00:58:39.281Z,0
2018-07-07T00:59:39.273Z,0
2018-07-07T01:00:39.265Z,0
2018-07-07T01:01:39.506Z,0
2018-07-07T01:02:38.997Z,0
2018-07-07T01:03:39.248Z,0
2018-07-07T01:04:38.989Z,0
2018-07-07T01:05:39.233Z,0
2018-07-07T01:06:39.238Z,0
2018-07-07T01:07:38.969Z,0
2018-07-07T01:08:39.219Z,0
2018-07-07T01:09:39.345Z,0
2018-07-07T01:10:39.236Z,0
2018-07-07T01:11:38.709Z,0
2018-07-07T01:12:39.195Z,0
2018-07-07T01:13:39.181Z,0
2018-07-07T01:14:39.193Z,0
2018-07-07T01:15:39.172Z,0
2018-07-07T01:16:39.163Z,0
2018-07-07T01:17:39.157Z,0
2018-07-07T01:18:38.901Z,0
2018-07-07T01:19:39.145Z,0
2018-07-07T01:20:39.141Z,0
2018-07-07T01:21:39.131Z,0
2018-07-07T01:22:38.876Z,0
2018-07-07T01:23:38.872Z,0
2018-07-07T01:24:39.113Z,0
2018-07-07T01:25:39.109Z,0
2018-07-07T01:26:38.852Z,0
2018-07-07T01:27:39.112Z,0
2018-07-07T01:28:39.089Z,0
2018-07-07T01:29:39.102Z,0
2018-07-07T01:30:38.844Z,0
2018-07-07T01:31:39.070Z,0
2018-07-07T01:32:39.074Z,0
2018-07-07T01:33:39.061Z,0
2018-07-07T01:34:39.062Z,0
2018-07-07T01:35:38.793Z,0
2018-07-07T01:36:39.044Z,0
2018-07-07T01:37:39.064Z,0
2018-07-07T01:38:38.788Z,0
2018-07-07T01:39:38.767Z,0
2018-07-07T01:40:38.760Z,0
2018-07-07T01:41:39.010Z,0
2018-07-07T01:42:39.003Z,0
2018-07-07T01:43:38.996Z,0
2018-07-07T01:44:38.994Z,0
2018-07-07T01:45:38.745Z,0
2018-07-07T01:46:38.972Z,0
2018-07-07T01:47:38.968Z,0
2018-07-07T01:48:39.123Z,0
2018-07-07T01:49:38.957Z,0
2018-07-07T01:50:38.958Z,0
2018-07-07T01:51:38.948Z,0
2018-07-07T01:52:38.932Z,0
2018-07-07T01:53:38.678Z,0
2018-07-07T01:54:38.919Z,0
2018-07-07T01:55:38.663Z,0
2018-07-07T01:56:38.907Z,0
2018-07-07T01:57:38.902Z,0
2018-07-07T01:58:38.647Z,0
2018-07-07T01:59:38.639Z,4
2018-07-07T02:00:38.889Z,4
2018-07-07T02:01:38.877Z,4
2018-07-07T02:02:38.642Z,4
2018-07-07T02:03:39.115Z,0
2018-07-07T02:04:38.866Z,0
2018-07-07T02:05:38.852Z,4
2018-07-07T02:06:38.600Z,4
2018-07-07T02:07:38.588Z,4
2018-07-07T02:08:38.588Z,4
2018-07-07T02:09:38.568Z,4
2018-07-07T02:10:38.753Z,4
2018-07-07T02:11:38.818Z,8
2018-07-07T02:12:38.814Z,8
2018-07-07T02:13:38.793Z,8
2018-07-07T02:14:38.788Z,8
2018-07-07T02:15:38.785Z,8
2018-07-07T02:16:38.526Z,12
2018-07-07T02:17:38.778Z,12
2018-07-07T02:18:38.762Z,16
2018-07-07T02:19:38.755Z,16
2018-07-07T02:20:38.749Z,16
2018-07-07T02:21:38.741Z,20
2018-07-07T02:22:38.511Z,24
2018-07-07T02:23:38.225Z,28
2018-07-07T02:24:38.242Z,32
2018-07-07T02:25:38.459Z,32
2018-07-07T02:26:38.463Z,36
2018-07-07T02:27:38.450Z,44
2018-07-07T02:28:38.441Z,48
2018-07-07T02:29:38.431Z,52
2018-07-07T02:30:38.679Z,60
2018-07-07T02:31:38.675Z,64
2018-07-07T02:32:38.411Z,68
2018-07-07T02:33:38.674Z,76
2018-07-07T02:34:38.902Z,88
2018-07-07T02:35:38.642Z,96
2018-07-07T02:36:38.638Z,104
2018-07-07T02:37:38.636Z,116
2018-07-07T02:38:38.627Z,128
2018-07-07T02:39:38.368Z,140
2018-07-07T02:40:38.614Z,152
2018-07-07T02:41:38.355Z,168
2018-07-07T02:42:38.345Z,184
2018-07-07T02:43:38.615Z,200
2018-07-07T02:44:38.584Z,216
2018-07-07T02:45:38.598Z,236
2018-07-07T02:46:38.572Z,256
2018-07-07T02:47:38.563Z,272
2018-07-07T02:48:38.563Z,296
2018-07-07T02:49:38.557Z,320
2018-07-07T02:50:38.538Z,344
2018-07-07T02:51:38.540Z,372
2018-07-07T02:52:38.275Z,396
2018-07-07T02:53:38.520Z,424
2018-07-07T02:54:38.520Z,452
2018-07-07T02:55:38.514Z,480
2018-07-07T02:56:38.499Z,512
2018-07-07T02:57:38.491Z,548
2018-07-07T02:58:38.240Z,584
2018-07-07T02:59:38.220Z,616
2018-07-07T03:00:38.216Z,656
2018-07-07T03:01:38.477Z,696
2018-07-07T03:02:38.451Z,736
2018-07-07T03:03:38.205Z,784
2018-07-07T03:04:38.443Z,832
2018-07-07T03:05:38.435Z,880
2018-07-07T03:06:38.424Z,928
2018-07-07T03:07:38.431Z,984
2018-07-07T03:08:38.164Z,1036
2018-07-07T03:09:38.419Z,1092
2018-07-07T03:10:38.395Z,1152
2018-07-07T03:11:38.136Z,1220
2018-07-07T03:12:38.395Z,1288
2018-07-07T03:13:38.381Z,1360
2018-07-07T03:14:38.383Z,1440
2018-07-07T03:15:38.111Z,1516
2018-07-07T03:16:38.352Z,1600
2018-07-07T03:17:38.354Z,1692
2018-07-07T03:18:38.094Z,1788
2018-07-07T03:19:38.344Z,1884
2018-07-07T03:20:37.869Z,1988
2018-07-07T03:21:38.068Z,2104
2018-07-07T03:22:38.117Z,2220
2018-07-07T03:23:38.321Z,2344
2018-07-07T03:24:37.803Z,2460
2018-07-07T03:25:37.788Z,2576
2018-07-07T03:26:38.285Z,2696
2018-07-07T03:27:38.276Z,2836
2018-07-07T03:28:37.515Z,3040
2018-07-07T03:29:38.270Z,3292
2018-07-07T03:30:38.006Z,3544
2018-07-07T03:31:38.002Z,3764
2018-07-07T03:32:38.238Z,3924
2018-07-07T03:33:38.239Z,4080
2018-07-07T03:34:38.224Z,4244
2018-07-07T03:35:38.241Z,4432
2018-07-07T03:36:37.965Z,4616
2018-07-07T03:37:38.454Z,4860
2018-07-07T03:38:38.204Z,5156
2018-07-07T03:39:38.191Z,5428
2018-07-07T03:40:38.222Z,5624
2018-07-07T03:41:38.187Z,5848
2018-07-07T03:42:38.179Z,6064
2018-07-07T03:43:38.172Z,6264
2018-07-07T03:44:37.912Z,6456
2018-07-07T03:45:38.165Z,6736
2018-07-07T03:46:37.903Z,7040
2018-07-07T03:47:38.150Z,7316
2018-07-07T03:48:38.154Z,7664
2018-07-07T03:49:38.143Z,8040
2018-07-07T03:50:38.134Z,8240
2018-07-07T03:51:38.130Z,8428
2018-07-07T03:52:38.147Z,8456
2018-07-07T03:53:38.122Z,8620
2018-07-07T03:54:38.122Z,8828
2018-07-07T03:55:38.126Z,9128
2018-07-07T03:56:38.109Z,9376
2018-07-07T03:57:38.109Z,9596
2018-07-07T03:58:38.106Z,9768
2018-07-07T03:59:38.101Z,10048
2018-07-07T04:00:37.847Z,10116
2018-07-07T04:01:38.102Z,10332
2018-07-07T04:02:37.841Z,10400
2018-07-07T04:03:37.839Z,10500
2018-07-07T04:04:38.090Z,10708
2018-07-07T04:05:37.838Z,11172
2018-07-07T04:06:38.085Z,11440
2018-07-07T04:07:38.092Z,11756
2018-07-07T04:08:38.082Z,11784
2018-07-07T04:09:38.083Z,11864
2018-07-07T04:10:37.829Z,12348
2018-07-07T04:11:37.581Z,12396
2018-07-07T04:12:38.098Z,13064
2018-07-07T04:13:38.079Z,13408
2018-07-07T04:14:38.127Z,13408
2018-07-07T04:15:38.083Z,13568
2018-07-07T04:16:37.836Z,13600
2018-07-07T04:17:38.082Z,14176
2018-07-07T04:18:38.090Z,14080
2018-07-07T04:19:37.837Z,14432
2018-07-07T04:20:38.088Z,15200
2018-07-07T04:21:38.092Z,15616
2018-07-07T04:22:38.090Z,14848
2018-07-07T04:23:38.092Z,16000
2018-07-07T04:24:38.094Z,16320
2018-07-07T04:25:37.845Z,17536
2018-07-07T04:26:37.854Z,17536
2018-07-07T04:27:38.102Z,18272
2018-07-07T04:28:38.106Z,15648
2018-07-07T04:29:38.111Z,19936
2018-07-07T04:30:37.973Z,19616
2018-07-07T04:31:37.868Z,21568
2018-07-07T04:32:37.613Z,18016
2018-07-07T04:33:38.128Z,18784
2018-07-07T04:34:37.876Z,13704
2018-07-07T04:35:38.136Z,15744
2018-07-07T04:36:38.146Z,18528
2018-07-07T04:37:38.147Z,13888
2018-07-07T04:38:38.146Z,14104
2018-07-07T04:39:38.156Z,14116
2018-07-07T04:40:37.902Z,13800
2018-07-07T04:41:38.159Z,12068
2018-07-07T04:42:38.172Z,11132
2018-07-07T04:43:38.165Z,11148
2018-07-07T04:44:38.174Z,11060
2018-07-07T04:45:38.188Z,17536
2018-07-07T04:46:37.932Z,9552
2018-07-07T04:47:38.234Z,7464
2018-07-07T04:48:38.196Z,7228
2018-07-07T04:49:38.191Z,8060
2018-07-07T04:50:38.199Z,8088
2018-07-07T04:51:38.199Z,7636
2018-07-07T04:52:38.315Z,7880
2018-07-07T04:53:38.204Z,9212
2018-07-07T04:54:38.208Z,9632
2018-07-07T04:55:37.954Z,10532
2018-07-07T04:56:37.957Z,11556
2018-07-07T04:57:37.706Z,11364
2018-07-07T04:58:38.214Z,11948
2018-07-07T04:59:38.215Z,12216
2018-07-07T05:00:37.962Z,12856
2018-07-07T05:01:38.215Z,13072
2018-07-07T05:02:37.974Z,10672
2018-07-07T05:03:37.966Z,10396
2018-07-07T05:04:37.836Z,9896
2018-07-07T05:05:37.719Z,10236
2018-07-07T05:06:37.717Z,11088
2018-07-07T05:07:38.219Z,10672
2018-07-07T05:08:38.222Z,9832
2018-07-07T05:09:37.974Z,10544
2018-07-07T05:10:38.470Z,11184
2018-07-07T05:11:37.965Z,12368
2018-07-07T05:12:37.717Z,13212
2018-07-07T05:13:37.974Z,14108
2018-07-07T05:14:38.232Z,14864
2018-07-07T05:15:38.768Z,13424
2018-07-07T05:16:37.737Z,14760
2018-07-07T05:17:38.222Z,13512
2018-07-07T05:18:38.219Z,13728
2018-07-07T05:19:37.964Z,11748
2018-07-07T05:20:38.216Z,11792
2018-07-07T05:21:37.986Z,13040
2018-07-07T05:22:38.213Z,14436
2018-07-07T05:23:38.220Z,12556
2018-07-07T05:24:38.215Z,10532
2018-07-07T05:25:38.211Z,12472
2018-07-07T05:26:37.964Z,14236
2018-07-07T05:27:38.222Z,12008
2018-07-07T05:28:38.212Z,11820
2018-07-07T05:29:38.216Z,12700
2018-07-07T05:30:37.957Z,13244
2018-07-07T05:31:38.213Z,13448
2018-07-07T05:32:38.216Z,15520
2018-07-07T05:33:37.960Z,16128
2018-07-07T05:34:37.955Z,14420
2018-07-07T05:35:37.953Z,12124
2018-07-07T05:36:37.951Z,10112
2018-07-07T05:37:37.968Z,8892
2018-07-07T05:38:37.951Z,8496
2018-07-07T05:39:38.261Z,8280
2018-07-07T05:40:37.698Z,7864
2018-07-07T05:41:37.958Z,7520
2018-07-07T05:42:38.207Z,8668
2018-07-07T05:43:37.951Z,8556
2018-07-07T05:44:38.255Z,7400
2018-07-07T05:45:38.219Z,8668
2018-07-07T05:46:38.201Z,12472
2018-07-07T05:47:38.197Z,14324
2018-07-07T05:48:38.201Z,16192
2018-07-07T05:49:37.996Z,19360
2018-07-07T05:50:38.205Z,20096
2018-07-07T05:51:38.195Z,21056
2018-07-07T05:52:38.201Z,19296
2018-07-07T05:53:37.947Z,24576
2018-07-07T05:54:38.188Z,15584
2018-07-07T05:55:38.188Z,16896
2018-07-07T05:56:38.184Z,25056
2018-07-07T05:57:38.309Z,19776
2018-07-07T05:58:37.934Z,25504
2018-07-07T05:59:37.930Z,25184
2018-07-07T06:00:37.925Z,26432
2018-07-07T06:01:37.927Z,28704
2018-07-07T06:02:38.178Z,17600
2018-07-07T06:03:38.178Z,16224
2018-07-07T06:04:37.926Z,15204
2018-07-07T06:05:37.925Z,17376
2018-07-07T06:06:38.178Z,21760
2018-07-07T06:07:37.924Z,30784
2018-07-07T06:08:38.180Z,21472
2018-07-07T06:09:38.175Z,23680
2018-07-07T06:10:37.925Z,23456
2018-07-07T06:11:38.180Z,36512
2018-07-07T06:12:37.927Z,62592
2018-07-07T06:13:38.436Z,50880
2018-07-07T06:14:37.863Z,38528
2018-07-07T06:15:38.183Z,58144
2018-07-07T06:16:37.943Z,58688
2018-07-07T06:17:38.204Z,58208
2018-07-07T06:18:37.950Z,28416
2018-07-07T06:19:38.213Z,15744
2018-07-07T06:20:37.954Z,17152
2018-07-07T06:21:37.952Z,17184
2018-07-07T06:22:38.232Z,16480
2018-07-07T06:23:38.223Z,25728
2018-07-07T06:24:37.968Z,15968
2018-07-07T06:25:38.228Z,53120
2018-07-07T06:26:38.242Z,48832
2018-07-07T06:27:37.989Z,49376
2018-07-07T06:28:38.445Z,16992
2018-07-07T06:29:38.252Z,36576
2018-07-07T06:30:37.752Z,13080
2018-07-07T06:31:38.262Z,11644
2018-07-07T06:32:38.278Z,11216
2018-07-07T06:33:38.272Z,9676
2018-07-07T06:34:38.275Z,11692
2018-07-07T06:35:38.285Z,11612
2018-07-07T06:36:38.289Z,38592
2018-07-07T06:37:38.304Z,38592
2018-07-07T06:38:38.302Z,40768
2018-07-07T06:39:38.311Z,49888
2018-07-07T06:40:38.314Z,57376
2018-07-07T06:42:38.080Z,50432
2018-07-07T06:43:38.415Z,62240
2018-07-07T06:44:38.348Z,69056
2018-07-07T06:45:38.111Z,20064
2018-07-07T06:46:38.363Z,62048
2018-07-07T06:47:38.394Z,63744
2018-07-07T06:48:38.393Z,50176
2018-07-07T06:49:38.140Z,64416
2018-07-07T06:50:38.151Z,69792
2018-07-07T06:51:38.159Z,77760
2018-07-07T06:52:38.169Z,85632
2018-07-07T06:53:38.238Z,91360
2018-07-07T06:54:38.447Z,22048
2018-07-07T06:55:38.453Z,16032
2018-07-07T06:56:38.212Z,97568
2018-07-07T06:57:38.491Z,99072
2018-07-07T06:58:38.497Z,98400
2018-07-07T06:59:38.736Z,100800
2018-07-07T07:00:38.527Z,90432
2018-07-07T07:01:41.081Z,110368
2018-07-07T07:02:38.531Z,120832
2018-07-07T07:03:38.520Z,132384
2018-07-07T07:04:38.565Z,129664
2018-07-07T07:05:38.565Z,152032
2018-07-07T07:06:39.375Z,143744
2018-07-07T07:07:38.094Z,124768
2018-07-07T07:09:38.620Z,80864
2018-07-07T07:10:38.385Z,66976
2018-07-07T07:11:38.393Z,58944
2018-07-07T07:12:38.660Z,66400
2018-07-07T07:13:38.678Z,70208
2018-07-07T07:14:38.691Z,136320
2018-07-07T07:15:38.701Z,155808
2018-07-07T07:16:38.738Z,201888
2018-07-07T07:17:38.737Z,212512
2018-07-07T07:18:38.747Z,201760
2018-07-07T07:19:38.768Z,173856
2018-07-07T07:20:38.532Z,143904
2018-07-07T07:21:38.549Z,111744
2018-07-07T07:22:38.809Z,97344
2018-07-07T07:23:38.843Z,80928
2018-07-07T07:24:38.842Z,78208
2018-07-07T07:25:38.914Z,91104
2018-07-07T07:26:38.881Z,111488
2018-07-07T07:27:38.897Z,129440
2018-07-07T07:28:38.909Z,135808
2018-07-07T07:29:38.928Z,130784
2018-07-07T07:30:38.945Z,132928
2018-07-07T07:31:38.706Z,130272
2018-07-07T07:32:38.980Z,125056
2018-07-07T07:33:38.992Z,123936
2018-07-07T07:34:39.029Z,132096
2018-07-07T07:35:38.783Z,126560
2018-07-07T07:36:39.057Z,116928
2018-07-07T07:37:39.071Z,115296
2018-07-07T07:38:38.836Z,117536
2018-07-07T07:39:39.096Z,118464
2018-07-07T07:40:38.863Z,117088
2018-07-07T07:41:39.137Z,109440
2018-07-07T07:42:38.900Z,97312
2018-07-07T07:43:39.172Z,87712
2018-07-07T07:44:39.191Z,80576
2018-07-07T07:45:38.962Z,71616
2018-07-07T07:46:39.225Z,60608
2018-07-07T07:47:39.242Z,49664
2018-07-07T07:48:39.029Z,40960
2018-07-07T07:49:39.278Z,35456
2018-07-07T07:50:39.059Z,35136
2018-07-07T07:51:39.318Z,34464
2018-07-07T07:52:39.349Z,35936
2018-07-07T07:53:39.355Z,42368
2018-07-07T07:54:39.388Z,47200
2018-07-07T07:55:39.164Z,51904
2018-07-07T07:56:38.904Z,54400
2018-07-07T07:57:39.193Z,57664
2018-07-07T07:58:39.463Z,58400
2018-07-07T07:59:39.479Z,60256
2018-07-07T08:00:39.526Z,62208
2018-07-07T08:01:39.247Z,63488
2018-07-07T08:02:39.520Z,58240
2018-07-07T08:03:39.283Z,47712
2018-07-07T08:04:39.552Z,42656
2018-07-07T08:05:39.577Z,45376
2018-07-07T08:06:39.603Z,50688
2018-07-07T08:07:39.363Z,51136
2018-07-07T08:08:39.126Z,48448
2018-07-07T08:09:39.390Z,47776
2018-07-07T08:10:39.658Z,51808
2018-07-07T08:11:39.687Z,56864
2018-07-07T08:12:39.700Z,57728
2018-07-07T08:13:39.455Z,52864
2018-07-07T08:14:39.481Z,44896
2018-07-07T08:15:39.506Z,39648
2018-07-07T08:16:39.266Z,42496
2018-07-07T08:17:39.774Z,50688
2018-07-07T08:18:39.538Z,58720
2018-07-07T08:19:39.874Z,58944
2018-07-07T08:20:39.833Z,58560
2018-07-07T08:21:39.841Z,60864
2018-07-07T08:22:40.182Z,68736
2018-07-07T08:23:39.876Z,83584
2018-07-07T08:24:39.891Z,92512
2018-07-07T08:25:39.658Z,90560
2018-07-07T08:26:39.684Z,83392
2018-07-07T08:27:39.947Z,75584
2018-07-07T08:28:39.458Z,74016
2018-07-07T08:29:39.971Z,77792
2018-07-07T08:30:39.746Z,80288
2018-07-07T08:31:40.011Z,79872
2018-07-07T08:32:39.516Z,76512
2018-07-07T08:33:40.032Z,73888
2018-07-07T08:34:40.432Z,69216
2018-07-07T08:35:39.826Z,78176
2018-07-07T08:36:40.259Z,81728
2018-07-07T08:37:40.110Z,83264
2018-07-07T08:38:40.123Z,84096
2018-07-07T08:39:39.875Z,84480
2018-07-07T08:40:39.638Z,87584
2018-07-07T08:41:39.907Z,94560
2018-07-07T08:42:40.186Z,100256
2018-07-07T08:43:40.196Z,100672
2018-07-07T08:44:40.200Z,95072
2018-07-07T08:45:40.231Z,89056
2018-07-07T08:46:40.230Z,78816
2018-07-07T08:47:39.994Z,90528
2018-07-07T08:48:40.664Z,99584
2018-07-07T08:49:40.282Z,92256
2018-07-07T08:50:40.300Z,84832
2018-07-07T08:51:40.052Z,82624
2018-07-07T08:52:40.325Z,86944
2018-07-07T08:53:40.354Z,81024
2018-07-07T08:54:40.368Z,93984
2018-07-07T08:55:40.367Z,97664
2018-07-07T08:56:40.380Z,97696
2018-07-07T08:57:40.397Z,62144
2018-07-07T08:58:40.407Z,69504
2018-07-07T08:59:39.924Z,65824
2018-07-07T09:00:40.436Z,67808
2018-07-07T09:01:40.458Z,62208
2018-07-07T09:02:40.268Z,31648
2018-07-07T09:03:40.479Z,28832
2018-07-07T09:04:39.986Z,28960
2018-07-07T09:05:40.504Z,28608
2018-07-07T09:06:40.517Z,27648
2018-07-07T09:07:40.681Z,27328
2018-07-07T09:08:40.544Z,27392
2018-07-07T09:09:40.299Z,27200
2018-07-07T09:10:40.310Z,27456
2018-07-07T09:11:40.079Z,27392
2018-07-07T09:12:40.612Z,27456
2018-07-07T09:13:40.631Z,27904
2018-07-07T09:18:41.955Z,32160
2018-07-07T09:19:40.420Z,32096
2018-07-07T09:20:40.661Z,31872
2018-07-07T09:21:40.916Z,32000
2018-07-07T09:22:40.672Z,32032
2018-07-07T09:23:40.698Z,31904
2018-07-07T09:24:41.065Z,31520
2018-07-07T09:25:40.447Z,31616
2018-07-07T09:26:40.717Z,30848
2018-07-07T09:27:40.734Z,30464
2018-07-07T09:28:40.731Z,30080
2018-07-07T09:29:40.746Z,30272
2018-07-07T09:30:40.743Z,30464
2018-07-07T09:31:40.501Z,31552
2018-07-07T09:32:40.757Z,31104
2018-07-07T09:33:40.769Z,31520
2018-07-07T09:34:40.520Z,31744
2018-07-07T09:35:40.532Z,31328
2018-07-07T09:36:40.788Z,31296
2018-07-07T09:37:40.814Z,31264
2018-07-07T09:38:40.826Z,30912
2018-07-07T09:39:40.560Z,31008
2018-07-07T09:40:40.823Z,30976
2018-07-07T09:41:40.826Z,30976
2018-07-07T09:42:40.876Z,31008
2018-07-07T09:43:40.841Z,30944
2018-07-07T09:44:40.856Z,30400
2018-07-07T09:45:40.862Z,29824
2018-07-07T09:46:40.872Z,29280
2018-07-07T09:47:40.879Z,28640
2018-07-07T09:48:40.637Z,28448
2018-07-07T09:49:40.890Z,27872
2018-07-07T09:50:40.392Z,27168
2018-07-07T09:51:40.658Z,26656
2018-07-07T09:52:41.158Z,26720
2018-07-07T09:53:40.916Z,26688
2018-07-07T09:54:44.685Z,26720
2018-07-07T09:55:40.673Z,26592
2018-07-07T09:56:40.700Z,26496
2018-07-07T09:57:40.690Z,26240
2018-07-07T09:58:40.971Z,26048
2018-07-07T09:59:40.955Z,25824
2018-07-07T10:00:40.723Z,25472
2018-07-07T10:01:40.982Z,25344
2018-07-07T10:02:40.982Z,24864
2018-07-07T10:03:40.742Z,24352
2018-07-07T10:04:40.782Z,23968
2018-07-07T10:05:40.748Z,23392
2018-07-07T10:06:40.753Z,22688
2018-07-07T10:07:41.204Z,21696
2018-07-07T10:08:41.017Z,20960
2018-07-07T10:09:40.787Z,20128
2018-07-07T10:10:40.563Z,19648
2018-07-07T10:11:41.032Z,18976
2018-07-07T10:12:40.791Z,18560
2018-07-07T10:13:40.902Z,18496
2018-07-07T10:14:41.067Z,18336
2018-07-07T10:15:40.817Z,18304
2018-07-07T10:16:40.843Z,18208
2018-07-07T10:17:41.072Z,17952
2018-07-07T10:18:40.575Z,17600
2018-07-07T10:19:40.630Z,17440
2018-07-07T10:20:40.993Z,17312
2018-07-07T10:21:41.113Z,17152
2018-07-07T10:22:41.124Z,16992
2018-07-07T10:23:41.363Z,16832
2018-07-07T10:24:41.111Z,16800
2018-07-07T10:25:41.142Z,16800
2018-07-07T10:26:40.873Z,16800
2018-07-07T10:27:40.909Z,16704
2018-07-07T10:28:41.134Z,16448
2018-07-07T10:29:40.900Z,16048
2018-07-07T10:30:41.148Z,15720
2018-07-07T10:31:41.142Z,15400
2018-07-07T10:32:40.913Z,15356
2018-07-07T10:33:41.160Z,15060
2018-07-07T10:34:41.161Z,14568
2018-07-07T10:35:40.920Z,14232
2018-07-07T10:36:41.171Z,14040
2018-07-07T10:37:41.329Z,13784
2018-07-07T10:38:41.183Z,13504
2018-07-07T10:39:41.183Z,13224
2018-07-07T10:40:40.934Z,13108
2018-07-07T10:41:41.211Z,13148
2018-07-07T10:42:41.199Z,12576
2018-07-07T10:43:41.242Z,12164
2018-07-07T10:44:41.227Z,11844
2018-07-07T10:45:41.844Z,11368
2018-07-07T10:46:41.226Z,10960
2018-07-07T10:47:40.964Z,10456
2018-07-07T10:48:41.221Z,10040
2018-07-07T10:49:41.221Z,9672
2018-07-07T10:50:40.976Z,9524
2018-07-07T10:51:40.981Z,9432
2018-07-07T10:52:40.737Z,9492
2018-07-07T10:53:40.747Z,9488
2018-07-07T10:54:41.500Z,9516
2018-07-07T10:55:41.266Z,9812
2018-07-07T10:56:41.265Z,10080
2018-07-07T10:57:41.257Z,10032
2018-07-07T10:58:41.297Z,10216
2018-07-07T10:59:41.271Z,10564
2018-07-07T11:00:41.012Z,11084
2018-07-07T11:01:41.270Z,11724
2018-07-07T11:02:41.589Z,12376
2018-07-07T11:03:41.267Z,12732
2018-07-07T11:04:41.275Z,12876
2018-07-07T11:05:41.281Z,12908
2018-07-07T11:06:41.292Z,12848
2018-07-07T11:07:41.281Z,12820
2018-07-07T11:08:41.296Z,13000
2018-07-07T11:09:41.280Z,13144
2018-07-07T11:10:41.291Z,13372
2018-07-07T11:11:41.156Z,13628
2018-07-07T11:12:41.294Z,13868
2018-07-07T11:13:41.301Z,14136
2018-07-07T11:14:41.045Z,14444
2018-07-07T11:15:41.066Z,14668
2018-07-07T11:16:41.309Z,14684
2018-07-07T11:17:41.323Z,14564
2018-07-07T11:18:41.323Z,14548
2018-07-07T11:19:41.316Z,14448
2018-07-07T11:20:41.067Z,14380
2018-07-07T11:21:41.323Z,14324
2018-07-07T11:22:41.075Z,14172
2018-07-07T11:23:41.328Z,14188
2018-07-07T11:24:41.359Z,14332
2018-07-07T11:25:41.352Z,14812
2018-07-07T11:26:41.081Z,15212
2018-07-07T11:27:41.337Z,15944
2018-07-07T11:28:41.342Z,16928
2018-07-07T11:29:41.364Z,17536
2018-07-07T11:30:41.106Z,17920
2018-07-07T11:31:41.123Z,18336
2018-07-07T11:32:41.354Z,18592
2018-07-07T11:33:41.111Z,18784
2018-07-07T11:34:41.369Z,19040
2018-07-07T11:35:41.116Z,19168
2018-07-07T11:36:42.426Z,19136
2018-07-07T11:37:41.387Z,19008
2018-07-07T11:38:41.399Z,18848
2018-07-07T11:39:41.381Z,18752
2018-07-07T11:40:41.135Z,18688
2018-07-07T11:41:41.392Z,18592
2018-07-07T11:42:41.151Z,18496
2018-07-07T11:43:41.415Z,18432
2018-07-07T11:44:41.370Z,18272
2018-07-07T11:45:41.412Z,18144
2018-07-07T11:46:41.424Z,18208
2018-07-07T11:47:41.426Z,18112
2018-07-07T11:48:41.424Z,17984
2018-07-07T11:49:40.922Z,18048
2018-07-07T11:50:41.718Z,18304
2018-07-07T11:51:41.441Z,18688
2018-07-07T11:52:41.443Z,18976
2018-07-07T11:53:41.452Z,18976
2018-07-07T11:54:41.471Z,18752
2018-07-07T11:55:41.208Z,18304
2018-07-07T11:56:41.465Z,17568
2018-07-07T11:57:41.215Z,16832
2018-07-07T11:58:41.484Z,15836
2018-07-07T11:59:41.481Z,14852
2018-07-07T12:00:41.242Z,13972
2018-07-07T12:01:41.257Z,13076
2018-07-07T12:02:41.500Z,12236
2018-07-07T12:03:41.538Z,11428
2018-07-07T12:04:41.295Z,10548
2018-07-07T12:05:41.511Z,9700
2018-07-07T12:06:41.018Z,9024
2018-07-07T12:07:41.518Z,8380
2018-07-07T12:08:41.532Z,7928
2018-07-07T12:09:41.531Z,7668
2018-07-07T12:10:41.567Z,7716
2018-07-07T12:11:41.465Z,7680
2018-07-07T12:12:41.544Z,7772
2018-07-07T12:13:41.301Z,8172
2018-07-07T12:14:41.566Z,8212
2018-07-07T12:15:41.562Z,8392
2018-07-07T12:16:41.566Z,8620
2018-07-07T12:17:41.315Z,8720
2018-07-07T12:18:41.573Z,8836
2018-07-07T12:19:41.577Z,8940
2018-07-07T12:20:41.596Z,8976
2018-07-07T12:21:41.597Z,9064
2018-07-07T12:22:41.335Z,9280
2018-07-07T12:23:41.338Z,9564
2018-07-07T12:24:41.387Z,9764
2018-07-07T12:25:41.348Z,10060
2018-07-07T12:26:41.614Z,10224
2018-07-07T12:27:54.369Z,10392
2018-07-07T12:28:41.616Z,10576
2018-07-07T12:29:41.663Z,10744
2018-07-07T12:30:41.371Z,10960
2018-07-07T12:31:41.649Z,11204
2018-07-07T12:32:41.624Z,11472
2018-07-07T12:33:41.669Z,11828
2018-07-07T12:34:41.636Z,12112
2018-07-07T12:35:41.645Z,12268
2018-07-07T12:36:41.461Z,12120
2018-07-07T12:37:41.396Z,11884
2018-07-07T12:38:41.656Z,11768
2018-07-07T12:39:41.654Z,11440
2018-07-07T12:40:41.944Z,10876
2018-07-07T12:41:41.417Z,10412
2018-07-07T12:42:41.160Z,9820
2018-07-07T12:43:41.281Z,9508
2018-07-07T12:44:41.544Z,9108
2018-07-07T12:45:41.673Z,8888
2018-07-07T12:46:41.183Z,8336
2018-07-07T12:47:41.445Z,7684
2018-07-07T12:48:41.684Z,7360
2018-07-07T12:49:41.691Z,7088
2018-07-07T12:50:41.692Z,6556
2018-07-07T12:51:41.205Z,6180
2018-07-07T12:52:41.444Z,5840
2018-07-07T12:53:41.701Z,5292
2018-07-07T12:54:41.706Z,5164
2018-07-07T12:55:41.707Z,5336
2018-07-07T12:56:41.460Z,5520
2018-07-07T12:57:41.735Z,5672
2018-07-07T12:58:41.722Z,5868
2018-07-07T12:59:41.721Z,5936
2018-07-07T13:00:41.727Z,5988
2018-07-07T13:01:41.725Z,5984
2018-07-07T13:02:41.732Z,6120
2018-07-07T13:03:41.735Z,6212
2018-07-07T13:04:41.741Z,6424
2018-07-07T13:05:41.742Z,6552
2018-07-07T13:06:41.784Z,6576
2018-07-07T13:07:41.505Z,6460
2018-07-07T13:08:41.763Z,6388
2018-07-07T13:09:41.510Z,6472
2018-07-07T13:10:41.780Z,6572
2018-07-07T13:11:41.510Z,6608
2018-07-07T13:12:41.761Z,6692
2018-07-07T13:13:41.772Z,6888
2018-07-07T13:14:54.513Z,7280
2018-07-07T13:15:41.515Z,7528
2018-07-07T13:16:41.540Z,7564
2018-07-07T13:17:41.780Z,7428
2018-07-07T13:18:41.774Z,7148
2018-07-07T13:19:41.527Z,7120
2018-07-07T13:20:41.929Z,7216
2018-07-07T13:21:41.785Z,7452
2018-07-07T13:22:41.794Z,7584
2018-07-07T13:23:41.539Z,7892